createdAt,value
2022-09-07T00:02:43.509Z,10.15
2022-09-07T00:05:51.404Z,6.05
2022-09-07T00:08:58.740Z,8.90
2022-09-07T00:12:06.117Z,5.13
2022-09-07T00:15:13.518Z,6.13
2022-09-07T00:18:21.010Z,10.27
2022-09-07T00:21:28.426Z,10.40
2022-09-07T00:24:35.701Z,7.70
2022-09-07T00:27:43.069Z,5.95
2022-09-07T00:30:50.336Z,5.72
2022-09-07T00:33:58.788Z,7.47
2022-09-07T00:37:06.115Z,8.82
2022-09-07T00:40:13.554Z,4.78
2022-09-07T00:43:41.088Z,7.68
2022-09-07T00:46:48.480Z,8.80
2022-09-07T00:50:00.513Z,11.15
2022-09-07T00:53:12.296Z,7.82
2022-09-07T00:56:24.058Z,8.95
2022-09-07T00:59:41.819Z,7.32
2022-09-07T01:02:50.325Z,7.70
2022-09-07T01:06:04.461Z,11.07
2022-09-07T01:09:13.300Z,8.35
2022-09-07T01:12:20.629Z,9.07
2022-09-07T01:15:35.036Z,9.68
2022-09-07T01:18:42.444Z,9.32
2022-09-07T01:21:52.679Z,13.18
2022-09-07T01:25:09.472Z,10.85
2022-09-07T01:28:16.708Z,7.57
2022-09-07T01:31:42.961Z,8.23
2022-09-07T01:34:53.462Z,10.60
2022-09-07T01:38:19.307Z,9.75
2022-09-07T01:41:39.151Z,9.70
2022-09-07T01:44:50.159Z,10.10
2022-09-07T01:47:58.577Z,11.90
2022-09-07T01:51:11.574Z,12.80
2022-09-07T01:54:22.785Z,10.98
2022-09-07T01:57:38.246Z,9.25
2022-09-07T02:00:55.671Z,9.43
2022-09-07T02:04:08.740Z,10.63
2022-09-07T02:07:20.958Z,9.85
2022-09-07T02:10:35.516Z,9.80
2022-09-07T02:13:47.838Z,7.35
2022-09-07T02:17:09.914Z,9.75
2022-09-07T02:20:26.945Z,14.55
2022-09-07T02:23:37.332Z,10.82
2022-09-07T02:26:47.452Z,10.52
2022-09-07T02:29:54.816Z,11.35
2022-09-07T02:33:02.088Z,13.80
2022-09-07T02:36:09.607Z,10.85
2022-09-07T02:39:17.068Z,13.30
2022-09-07T02:42:24.448Z,9.82
2022-09-07T02:45:57.931Z,9.98
2022-09-07T02:49:11.797Z,11.43
2022-09-07T02:52:22.154Z,10.43
2022-09-07T02:55:48.375Z,11.57
2022-09-07T02:59:17.811Z,10.77
2022-09-07T03:02:29.339Z,9.32
2022-09-07T03:05:36.677Z,10.82
2022-09-07T03:08:46.792Z,10.98
2022-09-07T03:11:54.187Z,12.27
2022-09-07T03:15:01.507Z,11.43
2022-09-07T03:18:08.858Z,13.32
2022-09-07T03:21:16.116Z,8.57
2022-09-07T03:24:23.407Z,8.77
2022-09-07T03:27:31.514Z,8.57
2022-09-07T03:30:42.157Z,7.80
2022-09-07T03:33:49.524Z,10.38
2022-09-07T03:36:56.790Z,8.50
2022-09-07T03:40:05.657Z,11.05
2022-09-07T03:43:12.981Z,7.85
2022-09-07T03:46:20.559Z,9.75
2022-09-07T03:49:27.865Z,11.98
2022-09-07T03:52:35.653Z,7.57
2022-09-07T03:55:42.924Z,10.45
2022-09-07T03:58:50.643Z,7.88
2022-09-07T04:01:57.907Z,7.07
2022-09-07T04:05:05.269Z,8.57
2022-09-07T04:08:12.567Z,7.60
2022-09-07T04:11:20.075Z,8.50
2022-09-07T04:14:27.356Z,12.05
2022-09-07T04:17:34.658Z,6.78
2022-09-07T04:20:41.991Z,6.60
2022-09-07T04:23:49.421Z,10.80
2022-09-07T04:26:56.795Z,6.68
2022-09-07T04:30:04.352Z,6.95
2022-09-07T04:33:11.885Z,7.07
2022-09-07T04:36:19.685Z,6.45
2022-09-07T04:39:27.013Z,7.32
2022-09-07T04:42:34.538Z,7.47
2022-09-07T04:45:41.960Z,5.45
2022-09-07T04:48:49.950Z,5.43
2022-09-07T04:51:57.271Z,4.47
2022-09-07T04:55:05.140Z,4.18
2022-09-07T04:58:12.402Z,9.27
2022-09-07T05:01:20.971Z,4.15
2022-09-07T05:04:28.411Z,6.07
2022-09-07T05:07:35.806Z,14.95
2022-09-07T05:10:50.447Z,6.32
2022-09-07T05:13:58.346Z,7.43
2022-09-07T05:17:05.661Z,5.47
2022-09-07T05:20:15.412Z,10.85
2022-09-07T05:23:26.274Z,6.32
2022-09-07T05:26:34.924Z,10.38
2022-09-07T05:33:10.550Z,9.60
2022-09-07T05:36:17.981Z,5.75
2022-09-07T05:39:25.471Z,7.20
2022-09-07T05:42:32.958Z,5.43
2022-09-07T05:45:40.322Z,7.90
2022-09-07T05:48:47.720Z,7.00
2022-09-07T05:51:55.094Z,6.35
2022-09-07T05:55:26.283Z,5.97
2022-09-07T05:58:30.650Z,7.95
2022-09-07T06:01:38.087Z,10.65
2022-09-07T06:04:45.383Z,6.30
2022-09-07T06:07:53.189Z,8.02
2022-09-07T06:11:05.472Z,9.02
2022-09-07T06:14:12.869Z,9.20
2022-09-07T06:17:20.176Z,8.70
2022-09-07T06:20:27.691Z,6.47
2022-09-07T06:23:35.803Z,6.82
2022-09-07T06:26:43.171Z,6.43
2022-09-07T06:29:50.453Z,8.18
2022-09-07T06:32:57.902Z,11.20
2022-09-07T06:36:06.818Z,8.70
2022-09-07T06:39:14.275Z,12.68
2022-09-07T06:42:21.570Z,7.43
2022-09-07T06:45:33.719Z,9.18
2022-09-07T06:48:44.242Z,10.48
2022-09-07T06:51:52.043Z,9.80
2022-09-07T06:54:59.620Z,7.47
2022-09-07T06:58:07.257Z,8.50
2022-09-07T07:01:20.666Z,9.15
2022-09-07T07:04:28.046Z,11.52
2022-09-07T07:07:35.366Z,9.65
2022-09-07T07:19:33.123Z,9.05
2022-09-07T07:22:42.550Z,12.45
2022-09-07T07:24:46.471Z,7.38
2022-09-07T07:27:13.055Z,11.05
2022-09-07T07:29:39.716Z,12.48
2022-09-07T07:32:06.372Z,9.88
2022-09-07T07:34:33.127Z,10.40
2022-09-07T07:36:59.982Z,12.65
2022-09-07T07:42:13.949Z,9.57
2022-09-07T07:44:40.486Z,13.23
2022-09-07T07:47:07.121Z,10.25
2022-09-07T07:49:33.924Z,11.05
2022-09-07T07:54:47.590Z,8.38
2022-09-07T07:57:14.518Z,9.73
2022-09-07T07:59:41.076Z,12.73
2022-09-07T08:02:10.118Z,9.38
2022-09-07T08:04:36.873Z,10.15
2022-09-07T08:07:09.666Z,10.02
2022-09-07T08:09:38.699Z,6.18
2022-09-07T08:12:05.365Z,8.30
2022-09-07T08:14:31.974Z,10.48
2022-09-07T08:16:58.563Z,7.18
2022-09-07T08:19:25.470Z,7.55
2022-09-07T08:21:52.053Z,8.57
2022-09-07T08:24:19.292Z,5.43
2022-09-07T08:26:47.264Z,7.53
2022-09-07T08:29:13.799Z,8.68
2022-09-07T08:31:40.711Z,7.35
2022-09-07T08:34:07.712Z,5.82
2022-09-07T08:36:34.229Z,5.03
2022-09-07T08:39:01.660Z,5.55
2022-09-07T08:41:47.768Z,8.23
2022-09-07T08:44:33.009Z,6.03
2022-09-07T08:47:05.508Z,5.72
2022-09-07T08:49:48.216Z,4.90
2022-09-07T08:52:21.510Z,9.40
2022-09-07T08:54:53.284Z,7.47
2022-09-07T08:57:23.028Z,8.13
2022-09-07T09:00:04.096Z,6.13
2022-09-07T09:05:22.776Z,7.03
2022-09-07T09:06:10.906Z,6.78
2022-09-07T09:07:57.014Z,9.07
2022-09-07T09:10:46.648Z,7.53
2022-09-07T09:13:16.106Z,10.15
2022-09-07T09:16:01.615Z,7.85
2022-09-07T09:18:33.354Z,8.40
2022-09-07T09:21:00.461Z,6.22
2022-09-07T09:23:28.598Z,6.65
2022-09-07T09:25:56.279Z,6.75
2022-09-07T09:28:24.650Z,10.73
2022-09-07T09:30:53.242Z,7.45
2022-09-07T09:33:22.060Z,8.15
2022-09-07T09:35:50.153Z,8.05
2022-09-07T09:38:34.837Z,5.95
2022-09-07T09:41:11.631Z,4.70
2022-09-07T09:43:44.251Z,6.53
2022-09-07T09:46:22.945Z,9.30
2022-09-07T09:49:00.196Z,5.47
2022-09-07T09:54:21.175Z,7.07
2022-09-07T09:56:49.063Z,9.27
2022-09-07T10:05:28.139Z,5.70
2022-09-07T10:07:54.968Z,4.50
2022-09-07T10:10:21.692Z,6.65
2022-09-07T10:12:52.086Z,6.32
2022-09-07T10:15:40.891Z,7.38
2022-09-07T10:18:18.548Z,6.25
2022-09-07T10:20:45.387Z,6.22
2022-09-07T10:23:24.312Z,6.32
2022-09-07T10:25:51.300Z,8.35
2022-09-07T10:28:19.239Z,4.85
2022-09-07T10:30:55.051Z,7.43
2022-09-07T10:36:43.721Z,6.97
2022-09-07T10:39:17.042Z,9.32
2022-09-07T10:41:48.791Z,7.38
2022-09-07T10:44:22.448Z,5.95
2022-09-07T10:47:12.474Z,6.35
2022-09-07T10:52:52.269Z,8.18
2022-09-07T10:55:28.011Z,5.32
2022-09-07T10:58:07.415Z,7.57
2022-09-07T11:00:41.135Z,8.18
2022-09-07T11:03:27.622Z,7.45
2022-09-07T11:06:11.172Z,7.45
2022-09-07T11:14:27.531Z,4.13
2022-09-07T11:17:05.765Z,5.75
2022-09-07T11:19:37.450Z,9.70
2022-09-07T11:22:33.989Z,10.95
2022-09-07T11:27:58.998Z,8.20
2022-09-07T11:30:28.291Z,6.38
2022-09-07T11:32:58.099Z,7.25
2022-09-07T11:35:30.176Z,7.70
2022-09-07T11:37:59.606Z,14.55
2022-09-07T11:40:37.182Z,7.40
2022-09-07T11:43:12.757Z,9.65
2022-09-07T11:45:49.820Z,7.93
2022-09-07T11:48:35.541Z,9.20
2022-09-07T11:51:10.618Z,7.05
2022-09-07T11:53:38.905Z,5.30
2022-09-07T11:56:10.701Z,6.35
2022-09-07T11:58:37.353Z,4.88
2022-09-07T12:01:19.453Z,6.53
2022-09-07T12:03:46.503Z,9.18
2022-09-07T12:06:16.312Z,10.90
2022-09-07T12:09:01.402Z,6.43
2022-09-07T12:11:36.998Z,6.40
2022-09-07T12:14:10.625Z,7.20
2022-09-07T12:16:40.080Z,11.55
2022-09-07T12:19:17.204Z,7.47
2022-09-07T12:21:47.129Z,6.75
2022-09-07T12:24:32.437Z,6.82
2022-09-07T12:27:02.798Z,5.00
2022-09-07T12:29:29.931Z,5.95
2022-09-07T12:31:59.566Z,11.27
2022-09-07T12:34:33.573Z,8.38
2022-09-07T12:37:23.475Z,5.45
2022-09-07T12:39:50.295Z,4.80
2022-09-07T12:42:32.488Z,9.27
2022-09-07T12:45:28.919Z,7.30
2022-09-07T12:47:59.699Z,5.70
2022-09-07T12:50:29.706Z,4.95
2022-09-07T12:53:08.804Z,7.57
2022-09-07T12:56:15.597Z,7.90
2022-09-07T12:58:42.250Z,7.15
2022-09-07T13:01:12.062Z,6.78
2022-09-07T13:03:51.602Z,7.70
2022-09-07T13:07:01.739Z,5.22
2022-09-07T13:09:28.574Z,6.70
2022-09-07T13:11:55.370Z,4.72
2022-09-07T13:14:24.704Z,7.00
2022-09-07T13:17:18.472Z,5.80
2022-09-07T13:19:50.993Z,4.95
2022-09-07T13:22:29.666Z,6.70
2022-09-07T13:24:59.532Z,7.43
2022-09-07T13:27:54.072Z,5.10
2022-09-07T13:30:23.954Z,9.07
2022-09-07T13:35:37.647Z,6.05
2022-09-07T13:38:04.808Z,6.60
2022-09-07T13:40:39.388Z,8.43
2022-09-07T13:43:14.828Z,7.43
2022-09-07T13:45:53.773Z,6.10
2022-09-07T13:48:27.880Z,4.90
2022-09-07T13:50:54.679Z,5.57
2022-09-07T13:53:21.191Z,10.07
2022-09-07T13:55:55.151Z,2.42
2022-09-07T13:58:27.405Z,7.57
2022-09-07T14:00:59.195Z,4.43
2022-09-07T14:03:27.621Z,9.15
2022-09-07T14:06:13.106Z,4.25
2022-09-07T14:08:39.981Z,9.00
2022-09-07T14:11:19.384Z,8.95
2022-09-07T14:13:46.025Z,6.75
2022-09-07T14:16:12.724Z,7.68
2022-09-07T14:18:39.867Z,5.47
2022-09-07T14:21:11.888Z,7.05
2022-09-07T14:23:39.980Z,7.97
2022-09-07T14:26:16.566Z,5.53
2022-09-07T14:28:45.921Z,5.43
2022-09-07T14:31:14.470Z,6.07
2022-09-07T14:33:49.979Z,7.85
2022-09-07T14:36:41.888Z,5.82
2022-09-07T14:39:06.425Z,4.03
2022-09-07T14:41:34.807Z,5.47
2022-09-07T14:44:01.706Z,4.30
2022-09-07T14:46:29.472Z,8.73
2022-09-07T14:48:57.123Z,3.92
2022-09-07T14:51:35.275Z,6.18
2022-09-07T14:54:03.783Z,8.40
2022-09-07T14:56:32.886Z,3.55
2022-09-07T14:58:59.522Z,6.22
2022-09-07T15:01:41.758Z,2.83
2022-09-07T15:04:16.894Z,4.65
2022-09-07T15:07:02.249Z,9.82
2022-09-07T15:09:35.223Z,3.08
2022-09-07T15:12:15.425Z,4.90
2022-09-07T15:14:42.063Z,2.97
2022-09-07T15:20:26.019Z,5.95
2022-09-07T15:22:52.651Z,3.17
2022-09-07T15:25:19.358Z,4.10
2022-09-07T15:27:45.964Z,5.28
2022-09-07T15:30:12.680Z,2.85
2022-09-07T15:32:39.380Z,5.03
2022-09-07T15:35:06.305Z,5.75
2022-09-07T15:40:22.133Z,6.78
2022-09-07T15:43:16.499Z,4.13
2022-09-07T15:45:35.914Z,4.35
2022-09-07T15:48:02.866Z,6.93
2022-09-07T15:50:29.507Z,6.22
2022-09-07T15:52:56.122Z,7.80
2022-09-07T15:55:24.362Z,6.32
2022-09-07T15:57:59.423Z,7.00
2022-09-07T16:00:32.185Z,4.75
2022-09-07T16:03:07.675Z,4.60
2022-09-07T16:05:35.124Z,3.67
2022-09-07T16:11:05.276Z,3.40
2022-09-07T16:13:33.175Z,4.25
2022-09-07T16:16:01.435Z,3.63
2022-09-07T16:18:31.210Z,5.38
2022-09-07T16:21:03.635Z,1.70
2022-09-07T16:23:30.277Z,5.28
2022-09-07T16:25:58.547Z,4.35
2022-09-07T16:28:25.355Z,5.47
2022-09-07T16:30:52.069Z,8.73
2022-09-07T16:33:18.778Z,2.67
2022-09-07T16:35:55.876Z,2.65
2022-09-07T16:41:13.191Z,3.15
2022-09-07T16:43:39.961Z,7.25
2022-09-07T16:46:07.831Z,5.63
2022-09-07T16:48:36.078Z,4.15
2022-09-07T16:51:03.741Z,6.10
2022-09-07T16:53:32.756Z,6.15
2022-09-07T16:56:03.278Z,5.05
2022-09-07T16:58:36.289Z,9.27
2022-09-07T17:01:04.422Z,2.35
2022-09-07T17:03:31.131Z,5.95
2022-09-07T17:05:59.961Z,6.00
2022-09-07T17:08:26.811Z,3.92
2022-09-07T17:11:04.501Z,14.65
2022-09-07T17:13:31.802Z,9.77
2022-09-07T17:16:02.452Z,4.30
2022-09-07T17:21:16.626Z,5.63
2022-09-07T17:23:51.285Z,6.85
2022-09-07T17:26:22.533Z,5.57
2022-09-07T17:28:50.130Z,1.65
2022-09-07T17:34:11.580Z,4.45
2022-09-07T17:36:38.317Z,3.90
2022-09-07T17:39:22.731Z,2.58
2022-09-07T17:41:52.623Z,6.22
2022-09-07T17:44:19.586Z,4.30
2022-09-07T17:46:46.321Z,3.33
2022-09-07T17:49:16.763Z,4.65
2022-09-07T17:51:44.111Z,6.18
2022-09-07T17:54:12.338Z,2.10
2022-09-07T17:56:39.959Z,5.72
2022-09-07T18:01:56.279Z,7.15
2022-09-07T18:04:23.449Z,5.85
2022-09-07T18:06:50.506Z,4.25
2022-09-07T18:09:17.392Z,6.63
2022-09-07T18:11:45.935Z,6.53
2022-09-07T18:14:14.832Z,9.95
2022-09-07T18:16:42.203Z,7.40
2022-09-07T18:19:12.267Z,6.43
2022-09-07T18:21:42.103Z,3.00
2022-09-07T18:24:13.523Z,5.97
2022-09-07T18:26:40.853Z,6.43
2022-09-07T18:29:15.876Z,5.88
2022-09-07T18:31:53.675Z,5.60
2022-09-07T18:34:20.676Z,7.70
2022-09-07T18:36:47.409Z,5.32
2022-09-07T18:39:14.389Z,6.22
2022-09-07T18:41:42.151Z,3.60
2022-09-07T18:45:27.146Z,4.97
2022-09-07T18:46:55.542Z,4.90
2022-09-07T18:49:22.237Z,5.78
2022-09-07T18:54:35.706Z,4.22
2022-09-07T18:57:02.253Z,2.95
2022-09-07T18:59:29.854Z,3.03
2022-09-07T19:02:01.304Z,5.50
2022-09-07T19:07:17.930Z,3.05
2022-09-07T19:09:44.911Z,3.72
2022-09-07T19:12:11.609Z,3.85
2022-09-07T19:14:38.264Z,5.72
2022-09-07T19:17:05.115Z,9.57
2022-09-07T19:19:32.903Z,6.93
2022-09-07T19:22:01.632Z,1.85
2022-09-07T19:24:28.635Z,3.95
2022-09-07T19:27:00.406Z,4.05
2022-09-07T19:29:30.782Z,2.55
2022-09-07T19:32:11.742Z,2.30
2022-09-07T19:34:42.711Z,3.72
2022-09-07T19:37:10.208Z,2.80
2022-09-07T19:39:37.078Z,6.47
2022-09-07T19:42:04.645Z,1.50
2022-09-07T19:44:31.701Z,1.30
2022-09-07T19:46:58.703Z,3.67
2022-09-07T19:49:25.432Z,0.73
2022-09-07T19:51:52.188Z,3.70
2022-09-07T19:54:18.960Z,0.77
2022-09-07T19:56:45.644Z,3.45
2022-09-07T19:59:12.652Z,6.57
2022-09-07T20:01:40.632Z,3.88
2022-09-07T20:04:10.538Z,1.90
2022-09-07T20:06:38.221Z,1.17
2022-09-07T20:09:05.354Z,2.65
2022-09-07T20:11:32.508Z,4.40
2022-09-07T20:13:59.356Z,3.28
2022-09-07T20:16:28.016Z,2.78
2022-09-07T20:18:54.740Z,2.90
2022-09-07T20:21:22.247Z,4.15
2022-09-07T20:23:49.087Z,4.63
2022-09-07T20:26:16.800Z,1.90
2022-09-07T20:28:43.811Z,5.22
2022-09-07T20:31:11.849Z,4.53
2022-09-07T20:33:38.511Z,2.95
2022-09-07T20:36:06.230Z,2.83
2022-09-07T20:38:38.168Z,2.45
2022-09-07T20:41:04.794Z,2.13
2022-09-07T20:43:31.448Z,3.75
2022-09-07T20:45:58.603Z,1.75
2022-09-07T20:48:25.559Z,4.47
2022-09-07T20:50:59.285Z,5.90
2022-09-07T20:53:26.784Z,5.32
2022-09-07T20:56:09.563Z,3.20
2022-09-07T20:58:36.204Z,7.82
2022-09-07T21:01:03.477Z,2.85
2022-09-07T21:03:32.220Z,2.30
2022-09-07T21:06:03.213Z,1.40
2022-09-07T21:08:30.340Z,1.65
2022-09-07T21:10:56.947Z,1.92
2022-09-07T21:13:23.641Z,2.83
2022-09-07T21:15:53.118Z,3.35
2022-09-07T21:18:19.833Z,3.42
2022-09-07T21:21:18.298Z,3.97
2022-09-07T21:23:42.211Z,2.72
2022-09-07T21:26:11.107Z,3.15
2022-09-07T21:28:37.720Z,2.65
2022-09-07T21:31:08.670Z,1.13
2022-09-07T21:33:36.038Z,5.00
2022-09-07T21:36:03.883Z,2.47
2022-09-07T21:38:30.617Z,2.65
2022-09-07T21:40:57.247Z,3.33
2022-09-07T21:43:23.904Z,1.75
2022-09-07T21:45:50.490Z,2.55
2022-09-07T21:48:17.091Z,5.97
2022-09-07T21:50:45.066Z,1.63
2022-09-07T21:53:14.152Z,2.22
2022-09-07T21:55:40.751Z,1.05
2022-09-07T21:58:07.647Z,4.60
2022-09-07T22:00:34.241Z,1.77
2022-09-07T22:03:00.904Z,2.55
2022-09-07T22:05:27.524Z,1.25
2022-09-07T22:07:54.100Z,2.97
2022-09-07T22:10:20.764Z,2.90
2022-09-07T22:12:47.336Z,4.15
2022-09-07T22:15:14.007Z,5.45
2022-09-07T22:17:43.332Z,3.00
2022-09-07T22:20:12.763Z,1.60
2022-09-07T22:22:39.324Z,1.80
2022-09-07T22:25:06.159Z,1.77
2022-09-07T22:27:32.959Z,1.02
2022-09-07T22:29:59.511Z,1.55
2022-09-07T22:32:26.076Z,1.45
2022-09-07T22:34:52.740Z,3.22
2022-09-07T22:37:19.418Z,5.28
2022-09-07T22:39:48.891Z,2.85
2022-09-07T22:42:19.375Z,3.97
2022-09-07T22:44:45.957Z,4.15
2022-09-07T22:47:12.507Z,1.42
2022-09-07T22:49:39.117Z,3.92
2022-09-07T22:52:05.794Z,1.15
2022-09-07T22:54:32.353Z,3.30
2022-09-07T22:56:58.962Z,6.43
2022-09-07T22:59:29.271Z,3.25
2022-09-07T23:01:55.858Z,1.80
2022-09-07T23:04:22.574Z,1.50
2022-09-07T23:06:49.390Z,3.30
2022-09-07T23:09:17.298Z,3.15
2022-09-07T23:11:44.734Z,1.33
2022-09-07T23:14:12.866Z,0.82
2022-09-07T23:16:39.588Z,1.35
2022-09-07T23:19:06.340Z,2.88
2022-09-07T23:21:32.910Z,3.25
2022-09-07T23:24:00.001Z,2.83
2022-09-07T23:26:27.848Z,2.85
2022-09-07T23:28:59.242Z,2.33
2022-09-07T23:31:26.778Z,2.28
2022-09-07T23:33:55.417Z,3.40
2022-09-07T23:36:22.056Z,2.10
2022-09-07T23:38:48.826Z,1.42
2022-09-07T23:41:17.853Z,3.15
2022-09-07T23:43:44.458Z,2.47
2022-09-07T23:46:11.546Z,3.50
2022-09-07T23:48:38.356Z,4.57
2022-09-07T23:51:05.094Z,2.60
2022-09-07T23:53:31.740Z,2.55
2022-09-07T23:55:58.674Z,4.82
2022-09-07T23:58:25.262Z,2.45
